Kampville Court, Missouri
Current Conditions -  °F | °C
As of 2:54 AM on Sunday 26 Oct 2014 (Local Time) from KSET Reporting Station
Clear Clear  
Wind Chill: 15°   Ceiling: Unl
Heat Index: 15°   Visibility: 10mi
Dew Point:   Wind: 6mph
Humidity: 51%   Direction: 100°E
Pressure: 30.02"   Gusts: NA
Location:  38.8615°N, 90.4548°W
Report Text: KSET 260754Z AUTO 10005KT 10SM CLR 15/05 A3002 RMK AO2 SLP160 T01500050
Loading
Personal Weather Stations






























Interactive Weather Map
Tropical Storm Tracking
New forecast layout! Learn more

10-Day Weather Forecast

Advertisements
Track Severe Weather on mobile